Time;durP1;ratioP1;P1;durP2;ratioP2;P2;SDS_P1;SDS_P2;PMS_P1;PMS_P2;Temp;Humidity;BMP_temperature;BMP_pressure;BME280_temperature;BME280_humidity;BME280_pressure;Samples;Min_cycle;Max_cycle;Signal;HPM_P1;HPM_P2
2023/05/24 00:01:26;;;;;;;;;3.75;3.75;;;;;15.91;40.59;101820.16;4999901;28;46975;-64
2023/05/24 00:03:53;;;;;;;;;9.25;5.00;;;;;15.89;40.31;101829.91;5001138;28;45447;-64
2023/05/24 00:06:19;;;;;;;;;5.50;3.25;;;;;15.86;40.56;101842.34;5001567;28;45336;-64
2023/05/24 00:08:45;;;;;;;;;9.00;3.00;;;;;15.86;40.23;101842.34;4999705;28;45460;-64
2023/05/24 00:11:10;;;;;;;;;5.50;4.00;;;;;15.82;40.77;101830.06;5000689;28;46047;-64
2023/05/24 00:13:36;;;;;;;;;5.25;5.00;;;;;15.81;40.73;101830.91;5000965;28;45380;-64
2023/05/24 00:16:01;;;;;;;;;7.25;4.00;;;;;15.77;40.77;101830.09;5001333;28;45226;-64
2023/05/24 00:18:26;;;;;;;;;7.75;3.75;;;;;15.74;40.26;101814.28;5000803;28;45552;-64
2023/05/24 00:20:55;;;;;;;;;4.00;3.75;;;;;15.72;40.53;101816.97;5003982;28;45290;-64
2023/05/24 00:23:21;;;;;;;;;7.50;5.25;;;;;15.69;40.88;101817.00;5024830;28;45281;-64
2023/05/24 00:25:46;;;;;;;;;3.75;3.25;;;;;15.67;40.23;101813.53;5020432;28;45376;-64
2023/05/24 00:28:11;;;;;;;;;6.00;4.00;;;;;15.65;40.64;101809.16;5019395;28;47160;-64
2023/05/24 00:30:37;;;;;;;;;6.00;3.25;;;;;15.61;40.70;101805.69;5020644;28;46077;-64
2023/05/24 00:33:02;;;;;;;;;3.75;3.25;;;;;15.60;40.28;101799.50;5018948;28;50238;-64
2023/05/24 00:35:27;;;;;;;;;9.75;4.75;;;;;15.55;41.02;101798.72;5020877;28;45336;-64
2023/05/24 00:37:53;;;;;;;;;6.25;5.00;;;;;15.52;41.04;101793.47;5020406;28;45486;-64
2023/05/24 00:40:18;;;;;;;;;5.50;4.00;;;;;15.50;40.57;101794.41;5018847;28;46137;-64
2023/05/24 00:42:44;;;;;;;;;7.50;5.50;;;;;15.48;40.43;101791.75;5020216;28;45476;-64
2023/05/24 00:45:09;;;;;;;;;6.25;4.00;;;;;15.44;40.80;101790.97;5020748;28;45346;-64
2023/05/24 00:47:35;;;;;;;;;7.50;6.75;;;;;15.42;40.55;101792.75;5020261;28;45506;-64
2023/05/24 00:50:01;;;;;;;;;4.75;3.50;;;;;15.39;40.83;101790.16;5020508;28;46118;-64
2023/05/24 00:52:27;;;;;;;;;10.50;5.75;;;;;15.34;41.49;101793.81;5020135;28;45230;-64
2023/05/24 00:54:52;;;;;;;;;4.50;4.00;;;;;15.28;40.85;101787.72;5020408;28;45225;-64
2023/05/24 00:57:18;;;;;;;;;8.25;5.75;;;;;15.27;40.86;101782.44;5019889;28;45578;-64
2023/05/24 00:59:44;;;;;;;;;6.25;5.00;;;;;15.25;40.79;101781.59;5019993;28;46013;-64
2023/05/24 01:02:10;;;;;;;;;11.00;11.00;;;;;15.21;40.78;101783.41;5020213;28;45233;-64
2023/05/24 01:04:36;;;;;;;;;5.00;3.75;;;;;15.21;40.83;101780.75;5020385;28;45437;-64
2023/05/24 01:07:02;;;;;;;;;5.25;5.00;;;;;15.18;41.14;101779.94;5020017;28;45471;-64
2023/05/24 01:09:36;;;;;;;;;6.25;6.25;;;;;15.15;41.16;101770.28;5020248;28;46582;-63
2023/05/24 01:12:47;;;;;;;;;5.25;5.25;;;;;15.10;41.29;101767.69;5019662;28;45252;-63
2023/05/24 01:15:43;;;;;;;;;3.00;3.00;;;;;15.09;41.46;101773.03;5018433;28;45443;-64
2023/05/24 01:18:15;;;;;;;;;11.25;6.00;;;;;14.99;41.63;101768.78;5019934;28;45231;-64
2023/05/24 01:20:42;;;;;;;;;8.00;4.75;;;;;15.01;41.15;101780.22;5018428;28;47091;-64
2023/05/24 01:23:30;;;;;;;;;3.50;3.00;;;;;15.00;41.40;101783.78;5025003;28;45267;-64
2023/05/24 01:26:07;;;;;;;;;6.75;5.00;;;;;14.98;41.64;101790.84;5019669;28;45234;-64
2023/05/24 01:28:34;;;;;;;;;10.25;5.00;;;;;14.93;41.57;101789.16;5018297;28;45268;-64
2023/05/24 01:30:59;;;;;;;;;6.00;6.00;;;;;14.92;41.41;101792.69;4998768;28;46895;-63
2023/05/24 01:33:25;;;;;;;;;9.25;5.50;;;;;14.89;41.72;101790.13;5033119;28;45253;-64
2023/05/24 01:35:50;;;;;;;;;7.75;7.00;;;;;14.88;41.35;101785.72;5020201;28;45271;-63
2023/05/24 01:38:16;;;;;;;;;6.50;5.00;;;;;14.85;41.20;101801.63;5018286;28;45547;-64
2023/05/24 01:40:42;;;;;;;;;6.75;5.50;;;;;14.78;41.36;101771.75;5019527;28;45368;-63
2023/05/24 01:43:26;;;;;;;;;6.50;5.00;;;;;14.81;41.49;101783.19;5019567;28;45419;-64
2023/05/24 01:46:07;;;;;;;;;5.25;4.75;;;;;14.75;41.48;101797.38;5018276;28;45503;-64
2023/05/24 01:48:53;;;;;;;;;6.25;4.75;;;;;14.72;42.01;101800.09;5019633;28;45344;-64
2023/05/24 01:51:22;;;;;;;;;12.75;5.25;;;;;14.67;41.72;101796.63;5019245;28;45456;-63
2023/05/24 01:53:51;;;;;;;;;5.00;4.50;;;;;14.65;41.56;101793.97;5018195;28;45299;-64
2023/05/24 01:56:19;;;;;;;;;6.25;4.75;;;;;14.61;42.08;101789.59;5017930;28;45345;-64
2023/05/24 01:58:46;;;;;;;;;6.25;5.25;;;;;14.60;42.05;101788.75;5019266;28;45487;-64
2023/05/24 02:01:12;;;;;;;;;6.00;5.00;;;;;14.57;41.85;101795.84;5019656;28;45365;-64
2023/05/24 02:03:38;;;;;;;;;8.00;5.75;;;;;14.53;41.80;101791.50;5019269;28;45305;-64
2023/05/24 02:06:05;;;;;;;;;7.00;5.50;;;;;14.52;42.03;101792.41;5019768;28;45166;-64
2023/05/24 02:08:30;;;;;;;;;9.75;6.00;;;;;14.49;41.75;101801.25;5019308;28;45546;-64
2023/05/24 02:10:55;;;;;;;;;7.50;5.50;;;;;14.46;42.00;101807.47;5018845;28;46893;-64
2023/05/24 02:13:21;;;;;;;;;10.00;6.25;;;;;14.43;41.89;101788.09;5020654;28;45184;-64
2023/05/24 02:15:46;;;;;;;;;7.00;5.00;;;;;14.42;42.12;101805.72;5022945;28;45576;-63
2023/05/24 02:18:12;;;;;;;;;5.75;4.50;;;;;14.37;42.37;101798.75;5022144;28;45311;-64
2023/05/24 02:20:39;;;;;;;;;5.25;4.75;;;;;14.37;41.83;101791.69;5022533;28;46979;-64
2023/05/24 02:23:05;;;;;;;;;12.50;8.25;;;;;14.34;42.05;101793.50;5027270;28;45320;-64
2023/05/24 02:25:32;;;;;;;;;8.50;8.00;;;;;14.32;42.49;101792.66;5009232;28;45330;-64
2023/05/24 02:27:58;;;;;;;;;9.50;7.75;;;;;14.27;42.15;101790.06;5021999;28;45271;-63
2023/05/24 02:30:23;;;;;;;;;7.00;5.25;;;;;14.25;42.34;101794.50;5022326;28;46991;-64
2023/05/24 02:32:49;;;;;;;;;8.25;6.00;;;;;14.23;42.21;101799.81;5022312;28;45190;-64
2023/05/24 02:35:14;;;;;;;;;7.50;5.50;;;;;14.20;42.71;101794.56;5022463;28;45832;-64
2023/05/24 02:37:39;;;;;;;;;8.00;6.00;;;;;14.20;42.16;101797.22;5022317;28;45467;-64
2023/05/24 02:40:05;;;;;;;;;7.50;7.50;;;;;14.19;42.33;101794.56;5021054;28;45392;-64
2023/05/24 02:42:31;;;;;;;;;7.75;7.75;;;;;14.17;42.48;101791.94;5020866;28;45185;-63
2023/05/24 02:44:56;;;;;;;;;9.25;6.00;;;;;14.14;42.48;101798.16;5021014;28;45394;-63
2023/05/24 02:47:22;;;;;;;;;7.50;5.00;;;;;14.13;42.83;101793.75;5022397;28;45285;-63
2023/05/24 02:49:47;;;;;;;;;10.25;7.50;;;;;14.12;42.75;101788.50;5022180;28;46332;-63
2023/05/24 02:52:13;;;;;;;;;6.00;6.00;;;;;14.09;42.67;101788.53;5022285;28;46544;-64
2023/05/24 02:54:39;;;;;;;;;8.00;7.50;;;;;14.06;42.82;101788.56;5020827;28;45376;-63
2023/05/24 02:57:05;;;;;;;;;8.00;6.00;;;;;14.03;42.79;101778.03;5021683;28;45265;-63
2023/05/24 02:59:32;;;;;;;;;8.50;5.75;;;;;13.97;42.82;101778.97;5021915;28;46361;-63
2023/05/24 03:01:57;;;;;;;;;8.00;6.00;;;;;14.03;42.69;101793.91;5021571;28;45292;-63
2023/05/24 03:04:23;;;;;;;;;9.25;9.00;;;;;14.01;42.79;101782.47;5022080;28;45472;-63
2023/05/24 03:06:48;;;;;;;;;9.50;9.50;;;;;13.97;42.80;101774.59;5020728;28;45878;-63
2023/05/24 03:09:15;;;;;;;;;8.25;6.00;;;;;13.98;42.52;101778.09;5021715;28;45287;-63
2023/05/24 03:11:41;;;;;;;;;8.50;7.00;;;;;13.96;42.88;101771.94;5021703;28;45166;-63
2023/05/24 03:14:08;;;;;;;;;8.75;6.00;;;;;13.96;42.59;101779.88;5021742;28;45695;-63
2023/05/24 03:16:34;;;;;;;;;8.50;6.50;;;;;13.96;43.05;101772.84;5021659;28;45618;-63
2023/05/24 03:18:59;;;;;;;;;8.25;6.25;;;;;13.93;42.62;101775.50;5021419;28;46074;-63
2023/05/24 03:21:25;;;;;;;;;6.25;6.25;;;;;13.90;42.95;101772.91;5026927;28;45321;-63
2023/05/24 03:23:50;;;;;;;;;6.25;6.00;;;;;13.92;42.85;101773.78;5021776;28;45250;-63
2023/05/24 03:26:17;;;;;;;;;5.50;4.75;;;;;13.91;43.02;101779.94;5021376;28;45439;-63
2023/05/24 03:28:43;;;;;;;;;7.50;7.25;;;;;13.88;42.81;101772.03;5021479;28;46237;-63
2023/05/24 03:31:08;;;;;;;;;6.75;6.00;;;;;13.87;43.12;101775.56;5021448;28;45431;-63
2023/05/24 03:33:33;;;;;;;;;4.75;4.75;;;;;13.86;43.03;101775.59;5021047;28;53341;-63
2023/05/24 03:35:59;;;;;;;;;9.00;6.00;;;;;13.79;42.97;101766.88;5021574;28;45226;-63
2023/05/24 03:38:24;;;;;;;;;7.75;6.75;;;;;13.83;43.02;101773.84;5021349;28;46255;-63
2023/05/24 03:40:50;;;;;;;;;6.50;6.50;;;;;13.83;43.28;101776.50;5021127;28;45245;-63
2023/05/24 03:43:16;;;;;;;;;10.25;6.50;;;;;13.79;42.79;101772.16;5021310;28;45289;-63
2023/05/24 03:45:41;;;;;;;;;13.75;11.00;;;;;13.79;42.90;101778.28;5021332;28;45401;-63
2023/05/24 03:48:07;;;;;;;;;11.50;9.75;;;;;13.78;43.30;101778.31;5021019;28;45372;-63
2023/05/24 03:50:32;;;;;;;;;13.25;11.00;;;;;13.78;43.23;101783.59;5020867;28;45356;-64
2023/05/24 03:52:58;;;;;;;;;6.50;6.25;;;;;13.76;43.16;101785.38;5021252;28;45635;-63
2023/05/24 03:55:23;;;;;;;;;11.25;9.50;;;;;13.73;43.05;101782.78;5020842;28;45377;-63
2023/05/24 03:57:48;;;;;;;;;7.00;6.25;;;;;13.74;42.88;101787.19;5020940;28;45444;-63
2023/05/24 04:00:14;;;;;;;;;7.75;6.25;;;;;13.71;43.20;101788.09;5021118;28;45393;-63
2023/05/24 04:02:39;;;;;;;;;7.75;6.25;;;;;13.72;43.17;101788.94;5020978;28;45460;-63
2023/05/24 04:05:09;;;;;;;;;12.50;8.00;;;;;13.68;43.46;101789.88;5019741;28;45222;-63
2023/05/24 04:07:36;;;;;;;;;10.00;6.25;;;;;13.66;43.25;101792.53;5020669;28;46103;-63
2023/05/24 04:10:03;;;;;;;;;9.00;7.75;;;;;13.67;43.19;101802.19;5020774;28;45387;-63
2023/05/24 04:12:30;;;;;;;;;41.75;32.25;;;;;13.66;43.58;101795.19;5020652;28;45360;-63
2023/05/24 04:14:55;;;;;;;;;13.75;9.50;;;;;13.63;43.44;101796.09;5020567;28;45326;-63
2023/05/24 04:17:23;;;;;;;;;8.25;8.25;;;;;13.62;43.30;101794.34;5020605;28;45313;-63
2023/05/24 04:19:49;;;;;;;;;12.75;10.75;;;;;13.59;43.34;101789.06;5020802;28;45273;-63
2023/05/24 04:22:14;;;;;;;;;8.25;7.75;;;;;13.56;43.47;101790.88;5026124;28;45255;-64
2023/05/24 04:24:40;;;;;;;;;10.50;7.50;;;;;13.55;43.44;101792.66;5020592;28;45231;-63
2023/05/24 04:27:06;;;;;;;;;8.25;7.75;;;;;13.57;43.58;101795.25;5020474;28;45329;-63
2023/05/24 04:29:32;;;;;;;;;5.00;4.75;;;;;13.56;43.84;101794.41;5020651;28;45300;-63
2023/05/24 04:32:00;;;;;;;;;12.00;7.75;;;;;13.56;43.48;101798.78;5020652;28;45322;-63
2023/05/24 04:34:28;;;;;;;;;7.25;5.50;;;;;13.53;43.59;101806.75;5018595;28;45361;-63
2023/05/24 04:36:54;;;;;;;;;6.75;6.25;;;;;13.53;43.92;101806.75;5020466;28;47026;-63
2023/05/24 04:39:19;;;;;;;;;7.25;6.25;;;;;13.48;43.80;101802.41;5020372;28;45157;-63
2023/05/24 04:41:44;;;;;;;;;8.00;5.25;;;;;13.48;43.85;101806.78;5018982;28;46235;-63
2023/05/24 04:44:09;;;;;;;;;6.25;5.25;;;;;13.49;43.71;101819.09;5020415;28;45515;-63
2023/05/24 04:46:35;;;;;;;;;10.25;7.25;;;;;13.46;43.98;101816.50;5020463;28;46280;-63
2023/05/24 04:49:01;;;;;;;;;8.00;6.75;;;;;13.46;43.59;101819.16;5019953;28;45279;-63
2023/05/24 04:51:26;;;;;;;;;8.25;6.50;;;;;13.45;43.92;101815.63;5019654;28;45310;-63
2023/05/24 04:53:52;;;;;;;;;6.00;3.75;;;;;13.43;43.80;101813.88;5020417;28;45320;-63
2023/05/24 04:56:18;;;;;;;;;5.75;4.00;;;;;13.45;43.80;101815.63;5019891;28;45360;-63
2023/05/24 04:58:44;;;;;;;;;11.75;5.25;;;;;13.44;43.79;101813.84;5020236;28;45469;-63
2023/05/24 05:01:09;;;;;;;;;7.00;7.00;;;;;13.46;43.90;101833.22;5020197;28;45319;-63
2023/05/24 05:03:35;;;;;;;;;12.25;8.75;;;;;13.42;44.36;101828.84;5020207;28;45534;-63
2023/05/24 05:06:00;;;;;;;;;10.25;8.25;;;;;13.41;43.92;101829.75;5020122;28;46182;-63
2023/05/24 05:08:25;;;;;;;;;7.50;5.75;;;;;13.40;44.03;101827.97;5020126;28;45516;-63
2023/05/24 05:10:51;;;;;;;;;7.00;5.25;;;;;13.43;43.93;101832.34;5019902;28;45253;-63
2023/05/24 05:13:16;;;;;;;;;10.50;7.00;;;;;13.42;44.00;101830.59;5019899;28;45565;-64
2023/05/24 05:15:41;;;;;;;;;6.25;6.00;;;;;13.44;43.95;101840.25;5020010;28;45210;-63
2023/05/24 05:18:07;;;;;;;;;9.75;6.00;;;;;13.44;44.18;101836.75;5020109;28;45293;-63
2023/05/24 05:20:32;;;;;;;;;5.50;5.50;;;;;13.44;44.14;101832.34;5020046;28;45277;-63
2023/05/24 05:22:57;;;;;;;;;8.50;8.00;;;;;13.48;44.30;101841.13;5025243;28;45517;-63
2023/05/24 05:25:23;;;;;;;;;8.00;7.00;;;;;13.49;44.23;101832.31;5019412;28;46006;-63
2023/05/24 05:27:48;;;;;;;;;4.25;4.00;;;;;13.52;44.25;101829.66;5019974;28;45348;-63
2023/05/24 05:30:14;;;;;;;;;7.00;6.00;;;;;13.53;44.34;101826.09;5019962;28;45395;-63
2023/05/24 05:32:39;;;;;;;;;9.00;7.00;;;;;13.55;43.97;101837.53;5019749;28;45523;-63
2023/05/24 05:35:05;;;;;;;;;7.25;6.50;;;;;13.54;44.14;101827.84;5018234;28;47092;-63
2023/05/24 05:37:31;;;;;;;;;9.00;6.00;;;;;13.59;44.15;101826.03;5018464;28;45266;-63
2023/05/24 05:39:56;;;;;;;;;9.25;4.75;;;;;13.61;43.99;101829.56;5018437;28;45425;-63
2023/05/24 05:42:21;;;;;;;;;7.50;5.50;;;;;13.64;43.95;101833.94;5018221;28;45414;-63
2023/05/24 05:44:47;;;;;;;;;10.25;6.75;;;;;13.65;44.35;101825.13;5019455;28;45545;-63
2023/05/24 05:47:12;;;;;;;;;11.75;6.00;;;;;13.68;44.43;101830.38;5020611;28;45316;-63
2023/05/24 05:49:37;;;;;;;;;7.50;7.25;;;;;13.69;44.34;101832.13;5022950;28;46609;-63
2023/05/24 05:52:06;;;;;;;;;5.50;5.00;;;;;13.71;44.06;101825.06;5021531;28;54206;-64
2023/05/24 05:54:31;;;;;;;;;8.75;7.75;;;;;13.74;44.08;101824.16;5022990;28;46639;-63
2023/05/24 05:56:57;;;;;;;;;8.00;6.50;;;;;13.75;44.29;101825.91;5022517;28;45247;-63
2023/05/24 05:59:22;;;;;;;;;8.50;7.25;;;;;13.77;44.25;101829.41;5022889;28;45210;-64
2023/05/24 06:01:48;;;;;;;;;7.25;7.00;;;;;13.73;44.27;101815.34;5023147;28;45396;-63
2023/05/24 06:04:16;;;;;;;;;8.50;6.50;;;;;13.80;44.64;101830.25;5022736;28;46208;-64
2023/05/24 06:06:43;;;;;;;;;7.50;6.00;;;;;13.83;44.11;101834.63;5023096;28;45535;-63
2023/05/24 06:09:08;;;;;;;;;7.25;6.00;;;;;13.84;44.29;101836.38;5022697;28;45329;-63
2023/05/24 06:11:33;;;;;;;;;13.25;9.75;;;;;13.88;44.24;101837.22;5022282;28;49141;-63
2023/05/24 06:13:59;;;;;;;;;9.50;8.25;;;;;13.87;44.28;101831.03;5022451;28;46139;-64
2023/05/24 06:16:25;;;;;;;;;8.25;7.00;;;;;13.85;44.52;101834.59;5022740;28;45265;-64
2023/05/24 06:18:50;;;;;;;;;9.25;6.50;;;;;13.92;44.40;101833.66;5021275;28;45361;-64
2023/05/24 06:21:16;;;;;;;;;9.75;7.75;;;;;13.92;44.17;101829.25;5025334;28;45563;-64
2023/05/24 06:23:42;;;;;;;;;6.00;5.75;;;;;13.96;44.30;101845.94;5023844;28;45305;-64
2023/05/24 06:26:08;;;;;;;;;7.75;7.25;;;;;13.97;44.26;101845.94;5022356;28;45190;-64
2023/05/24 06:28:34;;;;;;;;;9.00;6.25;;;;;13.97;44.61;101848.59;5021248;28;45277;-64
2023/05/24 06:30:59;;;;;;;;;6.25;5.00;;;;;14.01;44.31;101852.03;5022481;28;45443;-64
2023/05/24 06:33:26;;;;;;;;;9.00;7.50;;;;;14.04;44.43;101859.09;5022044;28;45230;-64
2023/05/24 06:35:51;;;;;;;;;8.00;6.00;;;;;14.03;44.27;101857.34;5021275;28;45923;-64
2023/05/24 06:38:17;;;;;;;;;8.50;6.25;;;;;14.06;44.52;101868.75;5022221;28;45848;-64
2023/05/24 06:40:42;;;;;;;;;8.75;7.50;;;;;14.05;44.31;101852.88;5020905;28;45386;-64
2023/05/24 06:43:07;;;;;;;;;10.25;8.25;;;;;14.10;44.34;101856.34;5022022;28;46090;-64
2023/05/24 06:45:33;;;;;;;;;5.00;5.00;;;;;14.11;44.41;101856.34;5022302;28;45466;-64
2023/05/24 06:47:58;;;;;;;;;9.00;7.50;;;;;14.10;44.50;101851.06;5021008;28;45305;-64
2023/05/24 06:50:24;;;;;;;;;7.00;6.50;;;;;14.14;44.23;101855.44;5021911;28;53605;-64
2023/05/24 06:52:49;;;;;;;;;11.50;8.25;;;;;14.16;44.70;101855.41;5021885;28;46065;-64
2023/05/24 06:55:14;;;;;;;;;9.50;6.00;;;;;14.18;44.05;101851.88;5021750;28;45249;-64
2023/05/24 06:57:40;;;;;;;;;8.25;6.50;;;;;14.21;44.26;101856.25;5020386;28;45426;-64
2023/05/24 07:00:10;;;;;;;;;11.25;7.50;;;;;14.22;44.61;101858.00;5022124;28;45392;-64
2023/05/24 07:02:36;;;;;;;;;10.75;8.00;;;;;14.21;44.49;101858.88;5021719;28;46950;-64
2023/05/24 07:05:01;;;;;;;;;8.00;8.00;;;;;14.26;44.41;101862.34;5021962;28;45345;-64
2023/05/24 07:07:26;;;;;;;;;7.00;6.00;;;;;14.29;44.55;101854.38;5020718;28;45222;-64
2023/05/24 07:09:52;;;;;;;;;8.75;6.75;;;;;14.30;44.62;101856.13;5021891;28;45403;-64
2023/05/24 07:12:17;;;;;;;;;10.25;8.50;;;;;14.28;44.31;101852.63;5021239;28;53137;-64
2023/05/24 07:14:42;;;;;;;;;7.25;5.25;;;;;14.37;44.33;101873.66;5021518;28;45383;-64
2023/05/24 07:17:08;;;;;;;;;5.25;4.50;;;;;14.38;44.65;101858.69;5021799;28;45451;-64
2023/05/24 07:19:34;;;;;;;;;9.25;6.75;;;;;14.43;44.12;101864.81;5021842;28;45239;-64
2023/05/24 07:22:00;;;;;;;;;8.50;7.50;;;;;14.43;44.50;101863.00;5026869;28;45371;-64
2023/05/24 07:24:25;;;;;;;;;7.00;6.00;;;;;14.47;44.84;101861.22;5021619;28;45368;-64
2023/05/24 07:26:52;;;;;;;;;6.75;6.00;;;;;14.49;44.20;101864.72;5021349;28;45399;-64
2023/05/24 07:29:18;;;;;;;;;9.50;6.25;;;;;14.52;44.46;101866.44;5021588;28;45435;-64
2023/05/24 07:31:43;;;;;;;;;6.75;5.50;;;;;14.52;44.39;101859.38;5021324;28;46112;-64
2023/05/24 07:34:08;;;;;;;;;7.00;6.50;;;;;14.59;44.17;101873.38;5020212;28;45360;-64
2023/05/24 07:36:34;;;;;;;;;7.25;6.00;;;;;14.59;44.24;101871.63;5021551;28;45175;-64
2023/05/24 07:39:00;;;;;;;;;11.50;8.50;;;;;14.63;44.08;101873.34;5021467;28;45665;-64
2023/05/24 07:41:26;;;;;;;;;7.25;5.25;;;;;14.68;44.47;101878.63;5021061;28;45248;-64
2023/05/24 07:43:53;;;;;;;;;9.25;8.00;;;;;14.72;44.49;101876.81;5021324;28;45286;-64
2023/05/24 07:46:18;;;;;;;;;11.50;8.25;;;;;14.73;44.47;101878.53;5019461;28;45290;-64
2023/05/24 07:48:44;;;;;;;;;8.00;5.75;;;;;14.74;44.67;101875.00;5020057;28;46269;-64
2023/05/24 07:51:10;;;;;;;;;9.00;7.00;;;;;14.80;44.58;101874.91;5020985;28;45296;-64
2023/05/24 07:53:36;;;;;;;;;6.25;5.00;;;;;14.82;44.25;101877.53;5021122;28;45244;-64
2023/05/24 07:56:01;;;;;;;;;8.00;6.50;;;;;14.85;44.40;101874.84;5019836;28;45487;-64
2023/05/24 07:58:27;;;;;;;;;8.75;8.00;;;;;14.89;44.27;101887.16;5020978;28;45534;-64
2023/05/24 08:00:53;;;;;;;;;12.50;9.50;;;;;14.93;44.33;101889.72;5020856;28;46128;-64
2023/05/24 08:03:19;;;;;;;;;6.75;6.50;;;;;14.96;44.53;101883.53;5019859;28;45970;-64
2023/05/24 08:05:44;;;;;;;;;7.50;6.25;;;;;15.01;44.54;101891.41;5021038;28;45328;-64
2023/05/24 08:08:10;;;;;;;;;4.75;4.00;;;;;15.06;44.15;101892.22;5020813;28;48363;-64
2023/05/24 08:10:35;;;;;;;;;7.75;6.50;;;;;15.10;44.50;101888.59;5019477;28;46105;-64
2023/05/24 08:13:02;;;;;;;;;6.50;4.75;;;;;15.15;44.30;101889.41;5020730;28;45252;-64
2023/05/24 08:15:27;;;;;;;;;7.50;7.25;;;;;15.20;44.58;101889.34;5020669;28;45415;-64
2023/05/24 08:17:53;;;;;;;;;5.75;4.75;;;;;15.21;44.26;101878.72;5020787;28;45348;-64
2023/05/24 08:20:18;;;;;;;;;8.25;6.50;;;;;15.26;44.27;101881.31;5020596;28;45420;-64
2023/05/24 08:22:43;;;;;;;;;10.50;7.25;;;;;15.31;44.47;101886.53;5026141;28;45376;-64
2023/05/24 08:25:10;;;;;;;;;6.50;6.00;;;;;15.32;43.96;101883.88;5019263;28;45639;-64
2023/05/24 08:27:36;;;;;;;;;8.50;8.00;;;;;15.34;44.17;101867.94;5002992;28;45585;-64
2023/05/24 08:30:03;;;;;;;;;9.25;6.00;;;;;15.41;44.02;101881.06;5020534;28;45569;-64
2023/05/24 08:32:28;;;;;;;;;8.75;7.50;;;;;15.46;43.90;101886.28;5019358;28;45274;-64
2023/05/24 08:34:54;;;;;;;;;10.25;9.00;;;;;15.49;43.95;101880.06;5019149;28;45407;-64
2023/05/24 08:37:21;;;;;;;;;6.75;6.25;;;;;15.55;44.01;101880.84;5020533;28;45478;-64
2023/05/24 08:39:47;;;;;;;;;10.25;5.75;;;;;15.62;43.97;101875.44;5020327;28;45483;-64
2023/05/24 08:42:13;;;;;;;;;7.25;7.25;;;;;15.66;44.44;101883.31;5020157;28;45368;-64
2023/05/24 08:44:52;;;;;;;;;8.50;6.75;;;;;15.72;44.06;101884.97;5020463;28;45269;-64
2023/05/24 08:47:20;;;;;;;;;5.50;5.50;;;;;15.77;43.88;101875.16;5020394;28;45475;-64
2023/05/24 08:49:46;;;;;;;;;10.50;5.75;;;;;15.81;44.24;101878.63;5020173;28;45523;-64
2023/05/24 08:52:12;;;;;;;;;7.00;6.25;;;;;15.86;44.02;101883.00;5020349;28;45344;-64
2023/05/24 08:54:37;;;;;;;;;8.50;5.75;;;;;15.90;44.29;101876.72;5020317;28;45312;-63
2023/05/24 08:57:03;;;;;;;;;8.00;6.75;;;;;15.93;44.18;101866.03;5020007;28;45477;-63
2023/05/24 08:59:28;;;;;;;;;5.75;5.75;;;;;16.02;43.84;101869.44;5020001;28;46316;-64
2023/05/24 09:01:56;;;;;;;;;8.25;6.00;;;;;16.06;44.06;101858.75;5020388;28;45323;-64
2023/05/24 09:04:23;;;;;;;;;7.00;6.00;;;;;16.13;43.84;101869.25;5020277;28;45371;-64
2023/05/24 09:06:50;;;;;;;;;4.50;3.25;;;;;16.17;43.98;101861.19;5020103;28;45233;-64
2023/05/24 09:09:17;;;;;;;;;6.25;5.00;;;;;16.22;43.79;101854.00;5020135;28;45228;-64
2023/05/24 09:11:45;;;;;;;;;5.00;2.50;;;;;16.28;43.79;101863.63;5019590;28;45564;-64
2023/05/24 09:14:12;;;;;;;;;5.75;5.25;;;;;16.32;43.67;101856.50;5019917;28;45332;-64
2023/05/24 09:16:37;;;;;;;;;4.00;4.00;;;;;16.38;43.56;101853.72;5019770;28;45593;-64
2023/05/24 09:19:03;;;;;;;;;5.00;5.00;;;;;16.47;43.57;101858.81;5020042;28;45237;-64
2023/05/24 09:21:28;;;;;;;;;3.50;2.25;;;;;16.51;43.43;101860.47;5024998;28;45331;-65
2023/05/24 09:23:54;;;;;;;;;3.25;2.00;;;;;16.56;43.04;101861.28;5020084;28;45304;-64
2023/05/24 09:26:20;;;;;;;;;3.00;2.25;;;;;16.62;43.08;101862.06;5019761;28;45241;-64
2023/05/24 09:28:46;;;;;;;;;1.75;1.75;;;;;16.69;43.09;101867.19;5019762;28;45450;-64
2023/05/24 09:31:12;;;;;;;;;2.25;2.25;;;;;16.76;43.08;101859.09;5019798;28;45369;-66
2023/05/24 09:33:39;;;;;;;;;7.00;3.00;;;;;16.81;42.76;101859.88;5019609;28;45352;-64
2023/05/24 09:36:05;;;;;;;;;3.00;2.00;;;;;16.87;42.82;101860.59;5018493;28;45570;-64
2023/05/24 09:38:31;;;;;;;;;3.00;2.00;;;;;16.94;42.74;101869.31;5019752;28;45424;-64
2023/05/24 09:41:05;;;;;;;;;3.75;3.25;;;;;16.99;42.68;101850.63;5019115;28;45222;-68
2023/05/24 09:43:33;;;;;;;;;6.00;3.00;;;;;17.06;42.57;101860.19;5019739;28;45450;-64
2023/05/24 09:46:02;;;;;;;;;5.25;4.75;;;;;17.15;42.20;101864.44;5019599;28;45282;-64
2023/05/24 09:48:28;;;;;;;;;5.25;2.75;;;;;17.21;42.14;101848.34;5019501;28;45461;-64
2023/05/24 09:51:06;;;;;;;;;3.25;3.00;;;;;17.32;42.25;101853.38;5019530;28;45364;-64
2023/05/24 09:53:35;;;;;;;;;3.25;2.00;;;;;17.41;42.04;101850.50;5019627;28;45336;-64
2023/05/24 09:56:03;;;;;;;;;2.00;2.00;;;;;17.50;41.48;101852.06;5017756;28;45656;-65
2023/05/24 09:58:31;;;;;;;;;4.75;2.50;;;;;17.57;41.83;101852.75;5017888;28;47641;-64
2023/05/24 10:01:06;;;;;;;;;3.00;2.00;;;;;17.70;41.76;101854.19;5019316;28;45475;-65
2023/05/24 10:03:32;;;;;;;;;5.50;2.25;;;;;17.82;41.86;101855.63;5019348;28;45222;-64
2023/05/24 10:05:58;;;;;;;;;5.25;2.50;;;;;17.93;41.71;101853.56;5019183;28;45236;-64
2023/05/24 10:08:25;;;;;;;;;3.00;3.00;;;;;18.06;41.73;101845.28;5019256;28;46175;-64
2023/05/24 10:10:51;;;;;;;;;1.75;1.75;;;;;18.21;41.69;101838.66;5018797;28;45350;-65
2023/05/24 10:13:17;;;;;;;;;3.75;2.50;;;;;18.43;41.85;101845.09;5019000;28;45253;-65
2023/05/24 10:15:43;;;;;;;;;4.25;2.50;;;;;18.63;41.65;101844.50;5017894;28;45490;-65
2023/05/24 10:18:09;;;;;;;;;4.25;2.75;;;;;18.92;41.66;101844.56;5001383;28;45941;-65
2023/05/24 10:20:35;;;;;;;;;8.25;4.25;;;;;19.22;41.54;101836.47;5018865;28;45313;-65
2023/05/24 10:23:05;;;;;;;;;3.50;3.25;;;;;19.58;42.17;101836.13;5024732;28;45598;-65
2023/05/24 10:25:34;;;;;;;;;3.50;3.50;;;;;19.97;42.10;101835.69;5019094;28;45289;-66
2023/05/24 10:28:09;;;;;;;;;3.50;2.25;;;;;20.43;42.36;101836.63;5018751;28;45346;-65
2023/05/24 10:30:59;;;;;;;;;2.00;2.00;;;;;20.94;42.49;101818.66;5017865;28;45371;-64
2023/05/24 10:33:25;;;;;;;;;4.00;3.00;;;;;21.56;42.32;101829.44;5020607;28;45425;-65
2023/05/24 10:35:52;;;;;;;;;5.50;1.75;;;;;22.12;42.21;101832.34;5021341;28;45207;-64
2023/05/24 10:38:21;;;;;;;;;2.00;2.00;;;;;22.71;42.04;101830.50;5022190;28;45401;-65
2023/05/24 10:40:46;;;;;;;;;3.00;2.00;;;;;23.31;42.21;101825.84;5021986;28;45343;-65
2023/05/24 10:43:12;;;;;;;;;3.00;1.25;;;;;23.86;42.11;101824.75;5020953;28;45245;-65
2023/05/24 10:45:40;;;;;;;;;2.75;2.00;;;;;24.47;42.03;101820.56;5022410;28;45249;-65
2023/05/24 10:48:12;;;;;;;;;3.75;2.00;;;;;25.09;41.83;101819.78;5022119;28;46956;-65
2023/05/24 10:50:41;;;;;;;;;2.00;1.25;;;;;25.67;42.16;101824.47;5022042;28;45334;-65
2023/05/24 10:53:21;;;;;;;;;4.00;2.50;;;;;26.33;41.84;101827.59;5020883;28;45462;-65
2023/05/24 10:55:57;;;;;;;;;1.25;1.25;;;;;26.95;42.04;101837.97;5021686;28;45634;-65
2023/05/24 10:58:41;;;;;;;;;2.75;2.50;;;;;27.60;40.95;101830.91;5022029;28;45259;-65
2023/05/24 11:01:13;;;;;;;;;1.50;1.50;;;;;28.13;41.06;101824.56;5022034;28;45334;-66
2023/05/24 11:03:40;;;;;;;;;2.00;2.00;;;;;28.66;41.03;101825.16;5020722;28;45384;-66
2023/05/24 11:06:06;;;;;;;;;3.00;3.00;;;;;29.16;40.57;101827.78;5020888;28;45577;-65
2023/05/24 11:08:34;;;;;;;;;3.75;2.00;;;;;29.65;40.31;101822.28;5020592;28;46843;-66
2023/05/24 11:11:09;;;;;;;;;3.00;2.00;;;;;30.17;40.15;101836.25;5021531;28;45253;-65
2023/05/24 11:13:38;;;;;;;;;1.00;1.00;;;;;30.63;40.23;101828.94;5021942;28;45430;-65
2023/05/24 11:16:06;;;;;;;;;3.00;2.00;;;;;31.09;39.75;101825.13;5021920;28;45233;-65
2023/05/24 11:18:32;;;;;;;;;2.00;2.00;;;;;31.56;40.07;101824.72;5021611;28;45505;-65
2023/05/24 11:21:02;;;;;;;;;1.75;1.50;;;;;32.03;39.67;101827.00;5023247;28;45457;-65
2023/05/24 11:23:28;;;;;;;;;3.25;2.00;;;;;32.47;39.16;101834.03;5024222;28;45261;-65